Washington, Michigan
Current Conditions -  °F | °C
As of 11:12 AM on Thursday 18 Dec 2014 (Local Time) from KMTC Reporting Station
Rain Showers Rain Showers  
Wind Chill: 26°   Ceiling: 1700
Heat Index: 32°   Visibility: 7mi
Dew Point: 30°   Wind: 7mph
Humidity: 93%   Direction: 290°WNW
Pressure: 30.18"   Gusts: NA
Location:  42.72°N, 83.04°W
Report Text: KMTC 181612Z 29006KT 7SM VCSH SCT011 BKN017 OVC020 M00/M01 A3018
Loading
Personal Weather Stations






























Interactive Weather Map New forecast layout! Learn more

10-Day Weather Forecast

Advertisements
Track Severe Weather on mobile